sensor_id;sensor_type;location;lat;lon;timestamp;P1;durP1;ratioP1;P2;durP2;ratioP2
48823;SDS011;34640;53.590;10.054;2024-01-06T00:01:11;10.33;;;4.73;;
48823;SDS011;34640;53.590;10.054;2024-01-06T00:03:47;7.63;;;3.63;;
48823;SDS011;34640;53.590;10.054;2024-01-06T00:06:20;9.53;;;3.97;;
48823;SDS011;34640;53.590;10.054;2024-01-06T00:08:53;10.30;;;4.70;;
48823;SDS011;34640;53.590;10.054;2024-01-06T00:11:26;9.87;;;4.23;;
48823;SDS011;34640;53.590;10.054;2024-01-06T00:13:59;6.80;;;3.53;;
48823;SDS011;34640;53.590;10.054;2024-01-06T00:16:35;7.57;;;4.30;;
48823;SDS011;34640;53.590;10.054;2024-01-06T00:19:10;7.32;;;3.80;;
48823;SDS011;34640;53.590;10.054;2024-01-06T00:21:45;7.77;;;3.93;;
48823;SDS011;34640;53.590;10.054;2024-01-06T00:24:18;8.37;;;4.20;;
48823;SDS011;34640;53.590;10.054;2024-01-06T00:26:51;9.27;;;4.43;;
48823;SDS011;34640;53.590;10.054;2024-01-06T00:29:24;8.10;;;4.27;;
48823;SDS011;34640;53.590;10.054;2024-01-06T00:31:59;8.30;;;4.00;;
48823;SDS011;34640;53.590;10.054;2024-01-06T00:34:32;7.80;;;3.70;;
48823;SDS011;34640;53.590;10.054;2024-01-06T00:37:07;8.27;;;4.20;;
48823;SDS011;34640;53.590;10.054;2024-01-06T00:39:39;8.83;;;4.20;;
48823;SDS011;34640;53.590;10.054;2024-01-06T00:42:15;7.87;;;4.00;;
48823;SDS011;34640;53.590;10.054;2024-01-06T00:44:48;7.57;;;3.90;;
48823;SDS011;34640;53.590;10.054;2024-01-06T00:47:23;9.02;;;4.38;;
48823;SDS011;34640;53.590;10.054;2024-01-06T00:49:57;8.85;;;4.32;;
48823;SDS011;34640;53.590;10.054;2024-01-06T00:52:30;8.38;;;4.22;;
48823;SDS011;34640;53.590;10.054;2024-01-06T00:55:03;7.03;;;3.93;;
48823;SDS011;34640;53.590;10.054;2024-01-06T00:57:37;8.13;;;3.63;;
48823;SDS011;34640;53.590;10.054;2024-01-06T01:00:10;8.23;;;3.83;;
48823;SDS011;34640;53.590;10.054;2024-01-06T01:02:46;9.52;;;4.40;;
48823;SDS011;34640;53.590;10.054;2024-01-06T01:05:19;9.07;;;4.53;;
48823;SDS011;34640;53.590;10.054;2024-01-06T01:07:52;8.80;;;4.27;;
48823;SDS011;34640;53.590;10.054;2024-01-06T01:10:26;8.63;;;4.70;;
48823;SDS011;34640;53.590;10.054;2024-01-06T01:12:59;8.83;;;4.43;;
48823;SDS011;34640;53.590;10.054;2024-01-06T01:15:34;8.13;;;4.00;;
48823;SDS011;34640;53.590;10.054;2024-01-06T01:18:09;9.17;;;4.27;;
48823;SDS011;34640;53.590;10.054;2024-01-06T01:20:43;9.37;;;4.50;;
48823;SDS011;34640;53.590;10.054;2024-01-06T01:23:16;10.23;;;4.80;;
48823;SDS011;34640;53.590;10.054;2024-01-06T01:25:49;10.43;;;4.63;;
48823;SDS011;34640;53.590;10.054;2024-01-06T01:28:22;7.10;;;3.60;;
48823;SDS011;34640;53.590;10.054;2024-01-06T01:30:55;9.13;;;4.47;;
48823;SDS011;34640;53.590;10.054;2024-01-06T01:33:30;6.90;;;3.97;;
48823;SDS011;34640;53.590;10.054;2024-01-06T01:36:04;7.45;;;4.57;;
48823;SDS011;34640;53.590;10.054;2024-01-06T01:38:37;13.57;;;4.75;;
48823;SDS011;34640;53.590;10.054;2024-01-06T01:41:10;8.45;;;4.45;;
48823;SDS011;34640;53.590;10.054;2024-01-06T01:43:43;9.25;;;4.30;;
48823;SDS011;34640;53.590;10.054;2024-01-06T01:46:18;7.90;;;4.17;;
48823;SDS011;34640;53.590;10.054;2024-01-06T01:48:53;10.75;;;4.18;;
48823;SDS011;34640;53.590;10.054;2024-01-06T01:51:28;13.00;;;5.22;;
48823;SDS011;34640;53.590;10.054;2024-01-06T01:54:03;7.28;;;4.10;;
48823;SDS011;34640;53.590;10.054;2024-01-06T01:56:39;10.65;;;4.50;;
48823;SDS011;34640;53.590;10.054;2024-01-06T01:59:15;8.65;;;4.32;;
48823;SDS011;34640;53.590;10.054;2024-01-06T02:01:51;8.27;;;4.50;;
48823;SDS011;34640;53.590;10.054;2024-01-06T02:04:26;9.20;;;4.70;;
48823;SDS011;34640;53.590;10.054;2024-01-06T02:06:58;9.30;;;5.03;;
48823;SDS011;34640;53.590;10.054;2024-01-06T02:09:32;12.33;;;4.63;;
48823;SDS011;34640;53.590;10.054;2024-01-06T02:12:05;10.38;;;5.25;;
48823;SDS011;34640;53.590;10.054;2024-01-06T02:14:40;8.82;;;4.80;;
48823;SDS011;34640;53.590;10.054;2024-01-06T02:17:14;10.18;;;5.15;;
48823;SDS011;34640;53.590;10.054;2024-01-06T02:19:48;11.00;;;5.10;;
48823;SDS011;34640;53.590;10.054;2024-01-06T02:22:23;9.00;;;4.83;;
48823;SDS011;34640;53.590;10.054;2024-01-06T02:24:56;10.50;;;5.20;;
48823;SDS011;34640;53.590;10.054;2024-01-06T02:27:29;11.15;;;5.95;;
48823;SDS011;34640;53.590;10.054;2024-01-06T02:30:03;11.18;;;5.30;;
48823;SDS011;34640;53.590;10.054;2024-01-06T02:32:37;10.75;;;5.50;;
48823;SDS011;34640;53.590;10.054;2024-01-06T02:35:10;9.70;;;5.27;;
48823;SDS011;34640;53.590;10.054;2024-01-06T02:37:45;9.40;;;5.53;;
48823;SDS011;34640;53.590;10.054;2024-01-06T02:40:18;11.63;;;5.43;;
48823;SDS011;34640;53.590;10.054;2024-01-06T02:42:51;9.43;;;5.47;;
48823;SDS011;34640;53.590;10.054;2024-01-06T02:45:24;9.70;;;5.50;;
48823;SDS011;34640;53.590;10.054;2024-01-06T02:47:56;10.10;;;5.57;;
48823;SDS011;34640;53.590;10.054;2024-01-06T02:50:29;10.57;;;6.03;;
48823;SDS011;34640;53.590;10.054;2024-01-06T02:53:04;10.17;;;5.90;;
48823;SDS011;34640;53.590;10.054;2024-01-06T02:55:37;11.53;;;6.00;;
48823;SDS011;34640;53.590;10.054;2024-01-06T02:58:11;9.03;;;5.50;;
48823;SDS011;34640;53.590;10.054;2024-01-06T03:00:43;10.17;;;5.90;;
48823;SDS011;34640;53.590;10.054;2024-01-06T03:03:18;10.50;;;6.18;;
48823;SDS011;34640;53.590;10.054;2024-01-06T03:05:51;12.10;;;5.88;;
48823;SDS011;34640;53.590;10.054;2024-01-06T03:08:26;10.60;;;5.70;;
48823;SDS011;34640;53.590;10.054;2024-01-06T03:10:59;9.50;;;5.37;;
48823;SDS011;34640;53.590;10.054;2024-01-06T03:13:32;11.40;;;5.63;;
48823;SDS011;34640;53.590;10.054;2024-01-06T03:16:06;10.93;;;5.55;;
48823;SDS011;34640;53.590;10.054;2024-01-06T03:18:39;9.73;;;5.33;;
48823;SDS011;34640;53.590;10.054;2024-01-06T03:21:18;11.97;;;6.30;;
48823;SDS011;34640;53.590;10.054;2024-01-06T03:23:56;12.80;;;6.60;;
48823;SDS011;34640;53.590;10.054;2024-01-06T03:26:29;11.40;;;6.47;;
48823;SDS011;34640;53.590;10.054;2024-01-06T03:29:02;11.25;;;5.85;;
48823;SDS011;34640;53.590;10.054;2024-01-06T03:31:35;10.70;;;5.50;;
48823;SDS011;34640;53.590;10.054;2024-01-06T03:34:07;11.90;;;6.67;;
48823;SDS011;34640;53.590;10.054;2024-01-06T03:36:42;13.13;;;6.37;;
48823;SDS011;34640;53.590;10.054;2024-01-06T03:39:19;12.07;;;6.38;;
48823;SDS011;34640;53.590;10.054;2024-01-06T03:41:52;11.35;;;6.55;;
48823;SDS011;34640;53.590;10.054;2024-01-06T03:44:26;11.00;;;6.27;;
48823;SDS011;34640;53.590;10.054;2024-01-06T03:47:01;12.40;;;6.68;;
48823;SDS011;34640;53.590;10.054;2024-01-06T03:49:35;12.57;;;6.27;;
48823;SDS011;34640;53.590;10.054;2024-01-06T03:52:08;12.90;;;6.57;;
48823;SDS011;34640;53.590;10.054;2024-01-06T03:54:43;12.10;;;5.60;;
48823;SDS011;34640;53.590;10.054;2024-01-06T03:57:16;13.13;;;6.67;;
48823;SDS011;34640;53.590;10.054;2024-01-06T03:59:50;13.43;;;6.53;;
48823;SDS011;34640;53.590;10.054;2024-01-06T04:02:22;10.63;;;5.68;;
48823;SDS011;34640;53.590;10.054;2024-01-06T04:04:56;12.93;;;5.97;;
48823;SDS011;34640;53.590;10.054;2024-01-06T04:07:30;13.80;;;6.37;;
48823;SDS011;34640;53.590;10.054;2024-01-06T04:10:05;12.70;;;6.40;;
48823;SDS011;34640;53.590;10.054;2024-01-06T04:12:38;10.93;;;6.03;;
48823;SDS011;34640;53.590;10.054;2024-01-06T04:15:11;12.27;;;5.93;;
48823;SDS011;34640;53.590;10.054;2024-01-06T04:17:46;12.18;;;6.03;;
48823;SDS011;34640;53.590;10.054;2024-01-06T04:20:25;15.45;;;6.15;;
48823;SDS011;34640;53.590;10.054;2024-01-06T04:22:58;11.90;;;5.90;;
48823;SDS011;34640;53.590;10.054;2024-01-06T04:25:34;11.63;;;6.25;;
48823;SDS011;34640;53.590;10.054;2024-01-06T04:28:07;12.60;;;6.22;;
48823;SDS011;34640;53.590;10.054;2024-01-06T04:30:39;10.98;;;6.10;;
48823;SDS011;34640;53.590;10.054;2024-01-06T04:33:12;12.97;;;6.50;;
48823;SDS011;34640;53.590;10.054;2024-01-06T04:35:46;14.30;;;6.47;;
48823;SDS011;34640;53.590;10.054;2024-01-06T04:38:18;12.13;;;6.17;;
48823;SDS011;34640;53.590;10.054;2024-01-06T04:40:53;11.43;;;6.55;;
48823;SDS011;34640;53.590;10.054;2024-01-06T04:43:26;13.68;;;6.35;;
48823;SDS011;34640;53.590;10.054;2024-01-06T04:45:59;12.30;;;6.40;;
48823;SDS011;34640;53.590;10.054;2024-01-06T04:48:31;11.03;;;6.07;;
48823;SDS011;34640;53.590;10.054;2024-01-06T04:51:05;8.93;;;5.30;;
48823;SDS011;34640;53.590;10.054;2024-01-06T04:53:41;14.63;;;7.03;;
48823;SDS011;34640;53.590;10.054;2024-01-06T04:56:15;14.10;;;6.10;;
48823;SDS011;34640;53.590;10.054;2024-01-06T04:58:48;13.37;;;6.30;;
48823;SDS011;34640;53.590;10.054;2024-01-06T05:01:21;12.33;;;6.40;;
48823;SDS011;34640;53.590;10.054;2024-01-06T05:03:54;11.13;;;6.15;;
48823;SDS011;34640;53.590;10.054;2024-01-06T05:06:27;10.80;;;6.00;;
48823;SDS011;34640;53.590;10.054;2024-01-06T05:09:00;11.80;;;6.38;;
48823;SDS011;34640;53.590;10.054;2024-01-06T05:11:35;13.77;;;6.85;;
48823;SDS011;34640;53.590;10.054;2024-01-06T05:14:07;11.47;;;6.30;;
48823;SDS011;34640;53.590;10.054;2024-01-06T05:16:40;15.05;;;6.72;;
48823;SDS011;34640;53.590;10.054;2024-01-06T05:19:13;13.20;;;6.27;;
48823;SDS011;34640;53.590;10.054;2024-01-06T05:21:51;12.77;;;7.00;;
48823;SDS011;34640;53.590;10.054;2024-01-06T05:24:24;10.97;;;6.50;;
48823;SDS011;34640;53.590;10.054;2024-01-06T05:26:58;15.20;;;6.07;;
48823;SDS011;34640;53.590;10.054;2024-01-06T05:29:31;13.40;;;7.03;;
48823;SDS011;34640;53.590;10.054;2024-01-06T05:32:04;13.00;;;6.82;;
48823;SDS011;34640;53.590;10.054;2024-01-06T05:34:37;12.20;;;6.77;;
48823;SDS011;34640;53.590;10.054;2024-01-06T05:37:10;11.70;;;6.20;;
48823;SDS011;34640;53.590;10.054;2024-01-06T05:39:44;13.80;;;6.87;;
48823;SDS011;34640;53.590;10.054;2024-01-06T05:42:18;12.90;;;7.20;;
48823;SDS011;34640;53.590;10.054;2024-01-06T05:44:51;14.43;;;6.97;;
48823;SDS011;34640;53.590;10.054;2024-01-06T05:47:26;13.32;;;6.88;;
48823;SDS011;34640;53.590;10.054;2024-01-06T05:49:59;12.85;;;6.70;;
48823;SDS011;34640;53.590;10.054;2024-01-06T05:52:32;12.23;;;6.73;;
48823;SDS011;34640;53.590;10.054;2024-01-06T05:55:05;13.95;;;7.20;;
48823;SDS011;34640;53.590;10.054;2024-01-06T05:57:42;13.07;;;6.83;;
48823;SDS011;34640;53.590;10.054;2024-01-06T06:00:15;13.93;;;7.20;;
48823;SDS011;34640;53.590;10.054;2024-01-06T06:02:50;16.37;;;7.47;;
48823;SDS011;34640;53.590;10.054;2024-01-06T06:05:22;14.93;;;7.77;;
48823;SDS011;34640;53.590;10.054;2024-01-06T06:07:56;15.43;;;7.88;;
48823;SDS011;34640;53.590;10.054;2024-01-06T06:10:29;17.37;;;7.03;;
48823;SDS011;34640;53.590;10.054;2024-01-06T06:13:13;13.73;;;6.83;;
48823;SDS011;34640;53.590;10.054;2024-01-06T06:15:46;16.77;;;7.87;;
48823;SDS011;34640;53.590;10.054;2024-01-06T06:18:20;16.37;;;8.20;;
48823;SDS011;34640;53.590;10.054;2024-01-06T06:20:53;14.53;;;7.23;;
48823;SDS011;34640;53.590;10.054;2024-01-06T06:23:26;19.87;;;8.00;;
48823;SDS011;34640;53.590;10.054;2024-01-06T06:26:04;15.40;;;7.60;;
48823;SDS011;34640;53.590;10.054;2024-01-06T06:28:41;15.90;;;7.80;;
48823;SDS011;34640;53.590;10.054;2024-01-06T06:31:13;16.80;;;8.32;;
48823;SDS011;34640;53.590;10.054;2024-01-06T06:33:47;17.63;;;7.90;;
48823;SDS011;34640;53.590;10.054;2024-01-06T06:36:20;19.07;;;8.33;;
48823;SDS011;34640;53.590;10.054;2024-01-06T06:38:54;19.13;;;8.33;;
48823;SDS011;34640;53.590;10.054;2024-01-06T06:41:30;18.17;;;8.10;;
48823;SDS011;34640;53.590;10.054;2024-01-06T06:44:04;17.90;;;8.63;;
48823;SDS011;34640;53.590;10.054;2024-01-06T06:46:37;16.20;;;7.85;;
48823;SDS011;34640;53.590;10.054;2024-01-06T06:49:10;14.87;;;8.03;;
48823;SDS011;34640;53.590;10.054;2024-01-06T06:51:58;16.90;;;8.10;;
48823;SDS011;34640;53.590;10.054;2024-01-06T06:54:31;17.07;;;8.10;;
48823;SDS011;34640;53.590;10.054;2024-01-06T06:57:04;18.20;;;8.25;;
48823;SDS011;34640;53.590;10.054;2024-01-06T06:59:39;14.43;;;7.65;;
48823;SDS011;34640;53.590;10.054;2024-01-06T07:02:12;20.40;;;9.03;;
48823;SDS011;34640;53.590;10.054;2024-01-06T07:04:46;25.13;;;8.87;;
48823;SDS011;34640;53.590;10.054;2024-01-06T07:07:19;15.23;;;8.10;;
48823;SDS011;34640;53.590;10.054;2024-01-06T07:09:53;12.97;;;7.67;;
48823;SDS011;34640;53.590;10.054;2024-01-06T07:12:27;16.07;;;8.53;;
48823;SDS011;34640;53.590;10.054;2024-01-06T07:15:01;17.53;;;8.57;;
48823;SDS011;34640;53.590;10.054;2024-01-06T07:17:38;18.83;;;8.57;;
48823;SDS011;34640;53.590;10.054;2024-01-06T07:20:11;15.10;;;8.17;;
48823;SDS011;34640;53.590;10.054;2024-01-06T07:22:44;18.10;;;8.70;;
48823;SDS011;34640;53.590;10.054;2024-01-06T07:25:17;16.97;;;8.30;;
48823;SDS011;34640;53.590;10.054;2024-01-06T07:27:50;16.90;;;7.97;;
48823;SDS011;34640;53.590;10.054;2024-01-06T07:30:27;16.80;;;7.90;;
48823;SDS011;34640;53.590;10.054;2024-01-06T07:33:00;16.73;;;7.43;;
48823;SDS011;34640;53.590;10.054;2024-01-06T07:35:33;16.87;;;7.57;;
48823;SDS011;34640;53.590;10.054;2024-01-06T07:38:07;16.73;;;7.97;;
48823;SDS011;34640;53.590;10.054;2024-01-06T07:40:41;15.07;;;7.33;;
48823;SDS011;34640;53.590;10.054;2024-01-06T07:43:16;19.33;;;8.33;;
48823;SDS011;34640;53.590;10.054;2024-01-06T07:45:50;16.17;;;7.37;;
48823;SDS011;34640;53.590;10.054;2024-01-06T07:48:23;16.37;;;7.33;;
48823;SDS011;34640;53.590;10.054;2024-01-06T07:50:56;18.37;;;8.43;;
48823;SDS011;34640;53.590;10.054;2024-01-06T07:53:29;16.57;;;7.73;;
48823;SDS011;34640;53.590;10.054;2024-01-06T07:56:02;14.03;;;7.17;;
48823;SDS011;34640;53.590;10.054;2024-01-06T07:58:35;15.60;;;7.17;;
48823;SDS011;34640;53.590;10.054;2024-01-06T08:01:12;14.97;;;7.47;;
48823;SDS011;34640;53.590;10.054;2024-01-06T08:03:46;14.10;;;6.40;;
48823;SDS011;34640;53.590;10.054;2024-01-06T08:06:19;15.13;;;7.30;;
48823;SDS011;34640;53.590;10.054;2024-01-06T08:08:52;12.73;;;6.60;;
48823;SDS011;34640;53.590;10.054;2024-01-06T08:11:26;16.40;;;7.87;;
48823;SDS011;34640;53.590;10.054;2024-01-06T08:13:59;15.27;;;7.17;;
48823;SDS011;34640;53.590;10.054;2024-01-06T08:16:33;16.13;;;7.47;;
48823;SDS011;34640;53.590;10.054;2024-01-06T08:19:06;13.00;;;7.37;;
48823;SDS011;34640;53.590;10.054;2024-01-06T08:21:39;16.57;;;7.20;;
48823;SDS011;34640;53.590;10.054;2024-01-06T08:24:13;13.67;;;6.50;;
48823;SDS011;34640;53.590;10.054;2024-01-06T08:26:46;17.63;;;7.27;;
48823;SDS011;34640;53.590;10.054;2024-01-06T08:29:19;15.33;;;7.23;;
48823;SDS011;34640;53.590;10.054;2024-01-06T08:31:53;14.50;;;7.23;;
48823;SDS011;34640;53.590;10.054;2024-01-06T08:34:27;13.60;;;6.80;;
48823;SDS011;34640;53.590;10.054;2024-01-06T08:37:03;15.03;;;7.27;;
48823;SDS011;34640;53.590;10.054;2024-01-06T08:39:36;15.07;;;7.03;;
48823;SDS011;34640;53.590;10.054;2024-01-06T08:42:10;16.48;;;7.38;;
48823;SDS011;34640;53.590;10.054;2024-01-06T08:44:43;13.30;;;7.30;;
48823;SDS011;34640;53.590;10.054;2024-01-06T08:47:18;16.50;;;7.22;;
48823;SDS011;34640;53.590;10.054;2024-01-06T08:49:52;14.03;;;6.60;;
48823;SDS011;34640;53.590;10.054;2024-01-06T08:52:25;13.00;;;6.75;;
48823;SDS011;34640;53.590;10.054;2024-01-06T08:54:58;17.02;;;7.60;;
48823;SDS011;34640;53.590;10.054;2024-01-06T08:57:31;15.52;;;6.47;;
48823;SDS011;34640;53.590;10.054;2024-01-06T09:00:05;17.25;;;7.43;;
48823;SDS011;34640;53.590;10.054;2024-01-06T09:02:41;13.40;;;7.20;;
48823;SDS011;34640;53.590;10.054;2024-01-06T09:05:16;14.88;;;7.53;;
48823;SDS011;34640;53.590;10.054;2024-01-06T09:07:49;17.65;;;7.15;;
48823;SDS011;34640;53.590;10.054;2024-01-06T09:10:25;16.70;;;7.68;;
48823;SDS011;34640;53.590;10.054;2024-01-06T09:13:00;15.47;;;7.50;;
48823;SDS011;34640;53.590;10.054;2024-01-06T09:15:35;19.88;;;7.82;;
48823;SDS011;34640;53.590;10.054;2024-01-06T09:18:11;13.23;;;7.07;;
48823;SDS011;34640;53.590;10.054;2024-01-06T09:20:45;14.93;;;7.32;;
48823;SDS011;34640;53.590;10.054;2024-01-06T09:23:19;16.35;;;7.05;;
48823;SDS011;34640;53.590;10.054;2024-01-06T09:25:55;14.00;;;6.90;;
48823;SDS011;34640;53.590;10.054;2024-01-06T09:28:29;17.03;;;7.80;;
48823;SDS011;34640;53.590;10.054;2024-01-06T09:31:02;14.38;;;7.70;;
48823;SDS011;34640;53.590;10.054;2024-01-06T09:33:37;16.92;;;7.88;;
48823;SDS011;34640;53.590;10.054;2024-01-06T09:36:11;15.45;;;7.03;;
48823;SDS011;34640;53.590;10.054;2024-01-06T09:38:45;15.95;;;7.97;;
48823;SDS011;34640;53.590;10.054;2024-01-06T09:41:18;17.05;;;7.95;;
48823;SDS011;34640;53.590;10.054;2024-01-06T09:43:53;16.70;;;7.38;;
48823;SDS011;34640;53.590;10.054;2024-01-06T09:46:27;15.02;;;7.32;;
48823;SDS011;34640;53.590;10.054;2024-01-06T09:49:02;19.38;;;8.20;;
48823;SDS011;34640;53.590;10.054;2024-01-06T09:51:35;15.77;;;6.87;;
48823;SDS011;34640;53.590;10.054;2024-01-06T09:54:09;15.70;;;7.30;;
48823;SDS011;34640;53.590;10.054;2024-01-06T09:56:46;18.63;;;6.70;;
48823;SDS011;34640;53.590;10.054;2024-01-06T09:59:21;17.30;;;7.50;;
48823;SDS011;34640;53.590;10.054;2024-01-06T10:01:55;19.77;;;7.82;;
48823;SDS011;34640;53.590;10.054;2024-01-06T10:04:36;16.73;;;6.95;;
48823;SDS011;34640;53.590;10.054;2024-01-06T10:07:09;17.27;;;7.78;;
48823;SDS011;34640;53.590;10.054;2024-01-06T10:09:45;18.30;;;7.90;;
48823;SDS011;34640;53.590;10.054;2024-01-06T10:12:18;15.57;;;7.22;;
48823;SDS011;34640;53.590;10.054;2024-01-06T10:14:55;20.80;;;7.68;;
48823;SDS011;34640;53.590;10.054;2024-01-06T10:17:28;15.02;;;7.13;;
48823;SDS011;34640;53.590;10.054;2024-01-06T10:20:02;15.88;;;7.90;;
48823;SDS011;34640;53.590;10.054;2024-01-06T10:22:40;15.90;;;6.93;;
48823;SDS011;34640;53.590;10.054;2024-01-06T10:25:15;14.93;;;6.55;;
48823;SDS011;34640;53.590;10.054;2024-01-06T10:27:52;16.58;;;7.45;;
48823;SDS011;34640;53.590;10.054;2024-01-06T10:30:25;14.23;;;7.00;;
48823;SDS011;34640;53.590;10.054;2024-01-06T10:33:02;15.15;;;6.88;;
48823;SDS011;34640;53.590;10.054;2024-01-06T10:35:43;18.73;;;7.72;;
48823;SDS011;34640;53.590;10.054;2024-01-06T10:38:17;16.00;;;7.63;;
48823;SDS011;34640;53.590;10.054;2024-01-06T10:40:56;16.37;;;7.60;;
48823;SDS011;34640;53.590;10.054;2024-01-06T10:43:30;14.77;;;7.18;;
48823;SDS011;34640;53.590;10.054;2024-01-06T10:46:07;15.88;;;7.15;;
48823;SDS011;34640;53.590;10.054;2024-01-06T10:48:42;13.45;;;6.60;;
48823;SDS011;34640;53.590;10.054;2024-01-06T10:51:18;16.05;;;7.30;;
48823;SDS011;34640;53.590;10.054;2024-01-06T10:53:54;16.73;;;7.43;;
48823;SDS011;34640;53.590;10.054;2024-01-06T10:56:30;13.25;;;6.43;;
48823;SDS011;34640;53.590;10.054;2024-01-06T10:59:03;16.93;;;7.43;;
48823;SDS011;34640;53.590;10.054;2024-01-06T11:01:36;14.48;;;6.47;;
48823;SDS011;34640;53.590;10.054;2024-01-06T11:04:10;14.80;;;7.23;;
48823;SDS011;34640;53.590;10.054;2024-01-06T11:06:49;14.60;;;7.00;;
48823;SDS011;34640;53.590;10.054;2024-01-06T11:09:27;11.40;;;6.15;;
48823;SDS011;34640;53.590;10.054;2024-01-06T11:12:05;16.30;;;6.13;;
48823;SDS011;34640;53.590;10.054;2024-01-06T11:14:40;11.85;;;6.30;;
48823;SDS011;34640;53.590;10.054;2024-01-06T11:20:25;17.55;;;6.93;;
48823;SDS011;34640;53.590;10.054;2024-01-06T11:25:59;16.40;;;5.85;;
48823;SDS011;34640;53.590;10.054;2024-01-06T11:28:32;13.95;;;6.13;;
48823;SDS011;34640;53.590;10.054;2024-01-06T11:31:16;13.83;;;6.13;;
48823;SDS011;34640;53.590;10.054;2024-01-06T11:33:51;10.90;;;5.57;;
48823;SDS011;34640;53.590;10.054;2024-01-06T11:36:27;11.45;;;5.55;;
48823;SDS011;34640;53.590;10.054;2024-01-06T11:39:00;14.27;;;5.88;;
48823;SDS011;34640;53.590;10.054;2024-01-06T11:41:47;11.77;;;5.70;;
48823;SDS011;34640;53.590;10.054;2024-01-06T11:44:21;14.52;;;5.78;;
48823;SDS011;34640;53.590;10.054;2024-01-06T11:46:55;15.43;;;5.47;;
48823;SDS011;34640;53.590;10.054;2024-01-06T11:49:30;11.57;;;5.40;;
48823;SDS011;34640;53.590;10.054;2024-01-06T11:52:03;11.90;;;6.10;;
48823;SDS011;34640;53.590;10.054;2024-01-06T11:54:37;15.32;;;5.65;;
48823;SDS011;34640;53.590;10.054;2024-01-06T11:57:13;14.20;;;5.82;;
48823;SDS011;34640;53.590;10.054;2024-01-06T11:59:46;9.05;;;5.30;;
48823;SDS011;34640;53.590;10.054;2024-01-06T12:02:21;12.32;;;5.40;;
48823;SDS011;34640;53.590;10.054;2024-01-06T12:04:54;13.53;;;5.30;;
48823;SDS011;34640;53.590;10.054;2024-01-06T12:07:27;10.07;;;4.55;;
48823;SDS011;34640;53.590;10.054;2024-01-06T12:10:05;10.77;;;4.80;;
48823;SDS011;34640;53.590;10.054;2024-01-06T12:12:42;11.63;;;4.65;;
48823;SDS011;34640;53.590;10.054;2024-01-06T12:15:28;10.98;;;5.25;;
48823;SDS011;34640;53.590;10.054;2024-01-06T12:18:03;8.98;;;5.10;;
48823;SDS011;34640;53.590;10.054;2024-01-06T12:20:37;13.65;;;5.40;;
48823;SDS011;34640;53.590;10.054;2024-01-06T12:23:10;12.27;;;5.23;;
48823;SDS011;34640;53.590;10.054;2024-01-06T12:25:43;12.50;;;5.47;;
48823;SDS011;34640;53.590;10.054;2024-01-06T12:28:19;10.15;;;5.25;;
48823;SDS011;34640;53.590;10.054;2024-01-06T12:30:53;11.38;;;5.15;;
48823;SDS011;34640;53.590;10.054;2024-01-06T12:33:26;9.15;;;4.95;;
48823;SDS011;34640;53.590;10.054;2024-01-06T12:36:00;11.45;;;4.78;;
48823;SDS011;34640;53.590;10.054;2024-01-06T12:38:44;14.70;;;5.47;;
48823;SDS011;34640;53.590;10.054;2024-01-06T12:41:17;9.02;;;4.05;;
48823;SDS011;34640;53.590;10.054;2024-01-06T12:43:52;8.93;;;4.57;;
48823;SDS011;34640;53.590;10.054;2024-01-06T12:46:25;10.40;;;5.00;;
48823;SDS011;34640;53.590;10.054;2024-01-06T12:48:58;8.20;;;4.28;;
48823;SDS011;34640;53.590;10.054;2024-01-06T12:51:32;9.20;;;4.80;;
48823;SDS011;34640;53.590;10.054;2024-01-06T12:54:06;9.68;;;4.40;;
48823;SDS011;34640;53.590;10.054;2024-01-06T12:56:40;7.47;;;4.23;;
48823;SDS011;34640;53.590;10.054;2024-01-06T12:59:16;6.35;;;4.03;;
48823;SDS011;34640;53.590;10.054;2024-01-06T13:01:51;10.35;;;4.53;;
48823;SDS011;34640;53.590;10.054;2024-01-06T13:04:24;12.17;;;5.13;;
48823;SDS011;34640;53.590;10.054;2024-01-06T13:06:57;9.13;;;4.13;;
48823;SDS011;34640;53.590;10.054;2024-01-06T13:09:34;9.80;;;4.70;;
48823;SDS011;34640;53.590;10.054;2024-01-06T13:12:07;8.40;;;3.65;;
48823;SDS011;34640;53.590;10.054;2024-01-06T13:14:41;9.83;;;4.17;;
48823;SDS011;34640;53.590;10.054;2024-01-06T13:17:16;10.18;;;4.60;;
48823;SDS011;34640;53.590;10.054;2024-01-06T13:19:49;9.45;;;4.13;;
48823;SDS011;34640;53.590;10.054;2024-01-06T13:22:25;7.75;;;4.25;;
48823;SDS011;34640;53.590;10.054;2024-01-06T13:24:58;10.30;;;4.20;;
48823;SDS011;34640;53.590;10.054;2024-01-06T13:27:31;7.93;;;4.43;;
48823;SDS011;34640;53.590;10.054;2024-01-06T13:30:06;18.93;;;4.93;;
48823;SDS011;34640;53.590;10.054;2024-01-06T13:32:40;8.83;;;3.87;;
48823;SDS011;34640;53.590;10.054;2024-01-06T13:35:15;9.73;;;4.60;;
48823;SDS011;34640;53.590;10.054;2024-01-06T13:37:48;11.83;;;4.03;;
48823;SDS011;34640;53.590;10.054;2024-01-06T13:40:23;8.50;;;3.97;;
48823;SDS011;34640;53.590;10.054;2024-01-06T13:42:57;8.07;;;3.88;;
48823;SDS011;34640;53.590;10.054;2024-01-06T13:45:34;6.55;;;4.03;;
48823;SDS011;34640;53.590;10.054;2024-01-06T13:48:09;12.20;;;3.97;;
48823;SDS011;34640;53.590;10.054;2024-01-06T13:50:42;8.30;;;4.13;;
48823;SDS011;34640;53.590;10.054;2024-01-06T13:53:17;9.90;;;4.37;;
48823;SDS011;34640;53.590;10.054;2024-01-06T13:55:51;7.75;;;3.88;;
48823;SDS011;34640;53.590;10.054;2024-01-06T13:58:24;5.80;;;3.60;;
48823;SDS011;34640;53.590;10.054;2024-01-06T14:01:00;6.90;;;3.70;;
48823;SDS011;34640;53.590;10.054;2024-01-06T14:03:33;7.87;;;3.63;;
48823;SDS011;34640;53.590;10.054;2024-01-06T14:06:06;6.60;;;3.70;;
48823;SDS011;34640;53.590;10.054;2024-01-06T14:08:40;11.17;;;3.83;;
48823;SDS011;34640;53.590;10.054;2024-01-06T14:11:16;7.23;;;3.87;;
48823;SDS011;34640;53.590;10.054;2024-01-06T14:13:49;6.13;;;3.57;;
48823;SDS011;34640;53.590;10.054;2024-01-06T14:16:24;6.97;;;3.80;;
48823;SDS011;34640;53.590;10.054;2024-01-06T14:19:00;6.03;;;3.70;;
48823;SDS011;34640;53.590;10.054;2024-01-06T14:21:34;9.83;;;4.50;;
48823;SDS011;34640;53.590;10.054;2024-01-06T14:24:07;7.30;;;3.60;;
48823;SDS011;34640;53.590;10.054;2024-01-06T14:26:41;7.47;;;3.83;;
48823;SDS011;34640;53.590;10.054;2024-01-06T14:29:14;12.55;;;4.88;;
48823;SDS011;34640;53.590;10.054;2024-01-06T14:31:49;6.50;;;3.92;;
48823;SDS011;34640;53.590;10.054;2024-01-06T14:34:22;8.03;;;4.07;;
48823;SDS011;34640;53.590;10.054;2024-01-06T14:36:56;8.67;;;4.30;;
48823;SDS011;34640;53.590;10.054;2024-01-06T14:39:31;8.13;;;3.83;;
48823;SDS011;34640;53.590;10.054;2024-01-06T14:42:04;6.20;;;3.57;;
48823;SDS011;34640;53.590;10.054;2024-01-06T14:44:37;8.15;;;4.30;;
48823;SDS011;34640;53.590;10.054;2024-01-06T14:47:11;9.03;;;4.73;;
48823;SDS011;34640;53.590;10.054;2024-01-06T14:49:45;8.63;;;4.40;;
48823;SDS011;34640;53.590;10.054;2024-01-06T14:52:18;8.88;;;5.20;;
48823;SDS011;34640;53.590;10.054;2024-01-06T14:54:51;8.67;;;4.37;;
48823;SDS011;34640;53.590;10.054;2024-01-06T14:57:24;6.87;;;4.10;;
48823;SDS011;34640;53.590;10.054;2024-01-06T14:59:58;12.48;;;4.68;;
48823;SDS011;34640;53.590;10.054;2024-01-06T15:02:32;9.50;;;4.93;;
48823;SDS011;34640;53.590;10.054;2024-01-06T15:05:06;7.93;;;4.93;;
48823;SDS011;34640;53.590;10.054;2024-01-06T15:07:41;7.67;;;4.77;;
48823;SDS011;34640;53.590;10.054;2024-01-06T15:10:14;10.30;;;5.00;;
48823;SDS011;34640;53.590;10.054;2024-01-06T15:12:48;10.17;;;5.50;;